Aviation Digital Data Service (ADDS)

Output produced by METARs form (1159 UTC 26 March 2019)
found at http://www.aviationweather.gov/metar/data/
 
Forecast for: HLMS (MISRATA , LY)
Text: TAF HLMS 261100Z 2612/2712 24010KT 8000 NSC
Forecast period: 1200 to 2000 UTC 26 March 2019
Forecast type: FROM: standard forecast or significant change
Winds: from the WSW (240 degrees) at 12 MPH (10 knots; 5.1 m/s)
Visibility: 5 miles (8 km)
Ceiling: unknown
Clouds: missing
Weather: no significant weather forecast for this period
Text: BECMG 2620/2622 10010KT 9999 SCT025
Forecast period: 2000 UTC 26 March 2019 to 1200 UTC 27 March 2019
Forecast type: BECOMING: Conditions expected to become as follows by 2200 UTC 26 March 2019
Winds: from the E (100 degrees) at 12 MPH (10 knots; 5.1 m/s)
Visibility: 6 or more miles 10+ km)
Ceiling: at least 12,000 feet AGL
Clouds: scattered clouds at 2500 feet AGL
Weather: no significant weather forecast for this period